sensor_id;sensor_type;location;lat;lon;timestamp;temperature;humidity
65584;DHT22;62116;43.582;1.470;2023-03-01T00:01:11;3.92;56.64
65584;DHT22;62116;43.582;1.470;2023-03-01T00:03:37;3.90;56.68
65584;DHT22;62116;43.582;1.470;2023-03-01T00:06:04;3.85;56.58
65584;DHT22;62116;43.582;1.470;2023-03-01T00:08:30;3.86;56.95
65584;DHT22;62116;43.582;1.470;2023-03-01T00:11:03;3.83;57.62
65584;DHT22;62116;43.582;1.470;2023-03-01T00:13:29;3.87;57.90
65584;DHT22;62116;43.582;1.470;2023-03-01T00:15:54;3.89;57.58
65584;DHT22;62116;43.582;1.470;2023-03-01T00:18:20;3.95;57.58
65584;DHT22;62116;43.582;1.470;2023-03-01T00:20:52;3.92;57.80
65584;DHT22;62116;43.582;1.470;2023-03-01T00:23:18;3.97;57.51
65584;DHT22;62116;43.582;1.470;2023-03-01T00:25:44;3.95;57.50
65584;DHT22;62116;43.582;1.470;2023-03-01T00:28:09;3.99;57.21
65584;DHT22;62116;43.582;1.470;2023-03-01T00:30:35;3.97;57.38
65584;DHT22;62116;43.582;1.470;2023-03-01T00:33:00;4.00;57.39
65584;DHT22;62116;43.582;1.470;2023-03-01T00:35:25;4.00;57.84
65584;DHT22;62116;43.582;1.470;2023-03-01T00:37:51;4.05;56.81
65584;DHT22;62116;43.582;1.470;2023-03-01T00:40:23;3.99;57.21
65584;DHT22;62116;43.582;1.470;2023-03-01T00:42:49;3.93;57.62
65584;DHT22;62116;43.582;1.470;2023-03-01T00:45:14;3.93;57.27
65584;DHT22;62116;43.582;1.470;2023-03-01T00:47:40;3.95;56.57
65584;DHT22;62116;43.582;1.470;2023-03-01T00:50:06;3.92;56.68
65584;DHT22;62116;43.582;1.470;2023-03-01T00:52:31;3.93;56.63
65584;DHT22;62116;43.582;1.470;2023-03-01T00:54:56;3.93;56.78
65584;DHT22;62116;43.582;1.470;2023-03-01T00:57:23;3.90;56.76
65584;DHT22;62116;43.582;1.470;2023-03-01T00:59:49;3.86;56.85
65584;DHT22;62116;43.582;1.470;2023-03-01T01:02:14;3.79;57.26
65584;DHT22;62116;43.582;1.470;2023-03-01T01:04:40;3.86;57.17
65584;DHT22;62116;43.582;1.470;2023-03-01T01:07:05;3.83;57.30
65584;DHT22;62116;43.582;1.470;2023-03-01T01:09:31;3.76;57.16
65584;DHT22;62116;43.582;1.470;2023-03-01T01:11:56;3.78;57.09
65584;DHT22;62116;43.582;1.470;2023-03-01T01:14:22;3.75;56.86
65584;DHT22;62116;43.582;1.470;2023-03-01T01:16:47;3.72;57.21
65584;DHT22;62116;43.582;1.470;2023-03-01T01:19:14;3.68;57.88
65584;DHT22;62116;43.582;1.470;2023-03-01T01:21:39;3.65;58.02
65584;DHT22;62116;43.582;1.470;2023-03-01T01:24:05;3.65;58.06
65584;DHT22;62116;43.582;1.470;2023-03-01T01:26:32;3.65;57.88
65584;DHT22;62116;43.582;1.470;2023-03-01T01:28:59;3.64;58.01
65584;DHT22;62116;43.582;1.470;2023-03-01T01:31:26;3.62;57.78
65584;DHT22;62116;43.582;1.470;2023-03-01T01:33:52;3.61;57.33
65584;DHT22;62116;43.582;1.470;2023-03-01T01:36:18;3.54;57.60
65584;DHT22;62116;43.582;1.470;2023-03-01T01:38:44;3.52;57.53
65584;DHT22;62116;43.582;1.470;2023-03-01T01:41:11;3.50;57.80
65584;DHT22;62116;43.582;1.470;2023-03-01T01:46:46;3.42;57.54
65584;DHT22;62116;43.582;1.470;2023-03-01T01:49:27;3.44;56.90
65584;DHT22;62116;43.582;1.470;2023-03-01T01:52:13;3.41;56.94
65584;DHT22;62116;43.582;1.470;2023-03-01T01:54:49;3.42;57.01
65584;DHT22;62116;43.582;1.470;2023-03-01T01:57:19;3.41;57.06
65584;DHT22;62116;43.582;1.470;2023-03-01T01:59:51;3.36;57.13
65584;DHT22;62116;43.582;1.470;2023-03-01T02:02:18;3.34;57.09
65584;DHT22;62116;43.582;1.470;2023-03-01T02:04:45;3.32;56.89
65584;DHT22;62116;43.582;1.470;2023-03-01T02:07:19;3.32;56.78
65584;DHT22;62116;43.582;1.470;2023-03-01T02:09:50;3.32;57.00
65584;DHT22;62116;43.582;1.470;2023-03-01T02:12:18;3.30;57.03
65584;DHT22;62116;43.582;1.470;2023-03-01T02:14:44;3.30;56.82
65584;DHT22;62116;43.582;1.470;2023-03-01T02:17:11;3.25;57.07
65584;DHT22;62116;43.582;1.470;2023-03-01T02:22:22;3.28;57.42
65584;DHT22;62116;43.582;1.470;2023-03-01T02:30:20;3.10;58.04
65584;DHT22;62116;43.582;1.470;2023-03-01T02:32:48;3.08;58.26
65584;DHT22;62116;43.582;1.470;2023-03-01T02:35:16;3.04;58.07
65584;DHT22;62116;43.582;1.470;2023-03-01T02:37:43;3.08;57.94
65584;DHT22;62116;43.582;1.470;2023-03-01T02:40:16;3.04;58.20
65584;DHT22;62116;43.582;1.470;2023-03-01T02:42:58;3.00;58.36
65584;DHT22;62116;43.582;1.470;2023-03-01T02:45:25;2.93;59.16
65584;DHT22;62116;43.582;1.470;2023-03-01T02:47:54;2.77;60.16
65584;DHT22;62116;43.582;1.470;2023-03-01T02:53:27;2.75;59.35
65584;DHT22;62116;43.582;1.470;2023-03-01T02:55:53;2.75;59.49
65584;DHT22;62116;43.582;1.470;2023-03-01T02:58:19;2.75;59.59
65584;DHT22;62116;43.582;1.470;2023-03-01T03:00:45;2.77;59.74
65584;DHT22;62116;43.582;1.470;2023-03-01T03:03:16;2.73;59.60
65584;DHT22;62116;43.582;1.470;2023-03-01T03:05:43;2.73;59.40
65584;DHT22;62116;43.582;1.470;2023-03-01T03:08:08;2.73;59.37
65584;DHT22;62116;43.582;1.470;2023-03-01T03:10:37;2.73;59.67
65584;DHT22;62116;43.582;1.470;2023-03-01T03:13:07;2.66;59.82
65584;DHT22;62116;43.582;1.470;2023-03-01T03:15:33;2.72;59.65
65584;DHT22;62116;43.582;1.470;2023-03-01T03:18:03;2.67;59.91
65584;DHT22;62116;43.582;1.470;2023-03-01T03:20:30;2.66;59.88
65584;DHT22;62116;43.582;1.470;2023-03-01T03:22:57;2.66;59.92
65584;DHT22;62116;43.582;1.470;2023-03-01T03:25:24;2.64;59.86
65584;DHT22;62116;43.582;1.470;2023-03-01T03:27:50;2.64;59.67
65584;DHT22;62116;43.582;1.470;2023-03-01T03:30:21;2.56;60.21
65584;DHT22;62116;43.582;1.470;2023-03-01T03:32:47;2.56;60.41
65584;DHT22;62116;43.582;1.470;2023-03-01T03:37:46;2.47;60.35
65584;DHT22;62116;43.582;1.470;2023-03-01T03:40:38;2.50;60.61
65584;DHT22;62116;43.582;1.470;2023-03-01T03:43:07;2.49;60.84
65584;DHT22;62116;43.582;1.470;2023-03-01T03:45:32;2.49;60.71
65584;DHT22;62116;43.582;1.470;2023-03-01T03:47:59;2.42;60.64
65584;DHT22;62116;43.582;1.470;2023-03-01T03:50:25;2.36;61.08
65584;DHT22;62116;43.582;1.470;2023-03-01T03:52:51;2.37;60.84
65584;DHT22;62116;43.582;1.470;2023-03-01T03:55:17;2.36;60.61
65584;DHT22;62116;43.582;1.470;2023-03-01T03:57:45;2.33;61.16
65584;DHT22;62116;43.582;1.470;2023-03-01T04:00:18;2.32;61.53
65584;DHT22;62116;43.582;1.470;2023-03-01T04:02:45;2.32;61.55
65584;DHT22;62116;43.582;1.470;2023-03-01T04:05:12;2.33;61.09
65584;DHT22;62116;43.582;1.470;2023-03-01T04:07:40;2.25;61.40
65584;DHT22;62116;43.582;1.470;2023-03-01T04:10:08;2.26;61.43
65584;DHT22;62116;43.582;1.470;2023-03-01T04:12:34;2.26;61.15
65584;DHT22;62116;43.582;1.470;2023-03-01T04:15:01;2.22;61.86
65584;DHT22;62116;43.582;1.470;2023-03-01T04:17:27;2.16;62.60
65584;DHT22;62116;43.582;1.470;2023-03-01T04:19:52;2.21;62.17
65584;DHT22;62116;43.582;1.470;2023-03-01T04:22:18;2.13;61.97
65584;DHT22;62116;43.582;1.470;2023-03-01T04:24:44;2.21;61.87
65584;DHT22;62116;43.582;1.470;2023-03-01T04:27:10;2.16;61.81
65584;DHT22;62116;43.582;1.470;2023-03-01T04:29:36;2.12;61.94
65584;DHT22;62116;43.582;1.470;2023-03-01T04:32:01;2.12;62.09
65584;DHT22;62116;43.582;1.470;2023-03-01T04:34:28;2.11;61.84
65584;DHT22;62116;43.582;1.470;2023-03-01T04:36:53;2.12;61.76
65584;DHT22;62116;43.582;1.470;2023-03-01T04:39:19;2.13;61.93
65584;DHT22;62116;43.582;1.470;2023-03-01T04:41:44;2.11;61.73
65584;DHT22;62116;43.582;1.470;2023-03-01T04:44:10;2.02;61.91
65584;DHT22;62116;43.582;1.470;2023-03-01T04:46:36;2.03;61.82
65584;DHT22;62116;43.582;1.470;2023-03-01T04:49:02;2.01;62.01
65584;DHT22;62116;43.582;1.470;2023-03-01T04:51:28;1.98;62.42
65584;DHT22;62116;43.582;1.470;2023-03-01T04:53:54;1.98;62.92
65584;DHT22;62116;43.582;1.470;2023-03-01T04:56:19;2.02;62.93
65584;DHT22;62116;43.582;1.470;2023-03-01T04:58:45;2.02;62.25
65584;DHT22;62116;43.582;1.470;2023-03-01T05:01:13;1.97;62.16
65584;DHT22;62116;43.582;1.470;2023-03-01T05:03:43;1.88;62.51
65584;DHT22;62116;43.582;1.470;2023-03-01T05:06:09;1.83;62.89
65584;DHT22;62116;43.582;1.470;2023-03-01T05:08:36;1.85;63.52
65584;DHT22;62116;43.582;1.470;2023-03-01T05:11:05;1.86;63.13
65584;DHT22;62116;43.582;1.470;2023-03-01T05:13:31;1.88;63.05
65584;DHT22;62116;43.582;1.470;2023-03-01T05:15:58;1.88;62.55
65584;DHT22;62116;43.582;1.470;2023-03-01T05:18:25;1.79;62.44
65584;DHT22;62116;43.582;1.470;2023-03-01T05:20:55;1.81;62.40
65584;DHT22;62116;43.582;1.470;2023-03-01T05:23:23;1.79;62.76
65584;DHT22;62116;43.582;1.470;2023-03-01T05:25:49;1.72;62.91
65584;DHT22;62116;43.582;1.470;2023-03-01T05:28:18;1.77;62.78
65584;DHT22;62116;43.582;1.470;2023-03-01T05:30:44;1.71;63.07
65584;DHT22;62116;43.582;1.470;2023-03-01T05:33:10;1.72;63.21
65584;DHT22;62116;43.582;1.470;2023-03-01T05:35:40;1.74;62.98
65584;DHT22;62116;43.582;1.470;2023-03-01T05:38:06;1.79;63.04
65584;DHT22;62116;43.582;1.470;2023-03-01T05:40:33;1.75;63.72
65584;DHT22;62116;43.582;1.470;2023-03-01T05:42:59;1.78;63.76
65584;DHT22;62116;43.582;1.470;2023-03-01T05:45:26;1.81;64.18
65584;DHT22;62116;43.582;1.470;2023-03-01T05:47:52;1.79;64.08
65584;DHT22;62116;43.582;1.470;2023-03-01T05:50:23;1.78;63.67
65584;DHT22;62116;43.582;1.470;2023-03-01T05:52:50;1.68;63.63
65584;DHT22;62116;43.582;1.470;2023-03-01T05:55:18;1.71;63.09
65584;DHT22;62116;43.582;1.470;2023-03-01T05:57:44;1.64;63.13
65584;DHT22;62116;43.582;1.470;2023-03-01T06:00:11;1.60;63.71
65584;DHT22;62116;43.582;1.470;2023-03-01T06:02:37;1.58;63.71
65584;DHT22;62116;43.582;1.470;2023-03-01T06:05:04;1.60;63.93
65584;DHT22;62116;43.582;1.470;2023-03-01T06:07:30;1.58;64.34
65584;DHT22;62116;43.582;1.470;2023-03-01T06:09:55;1.60;64.33
65584;DHT22;62116;43.582;1.470;2023-03-01T06:12:20;1.61;64.20
65584;DHT22;62116;43.582;1.470;2023-03-01T06:14:46;1.57;64.39
65584;DHT22;62116;43.582;1.470;2023-03-01T06:17:13;1.58;63.50
65584;DHT22;62116;43.582;1.470;2023-03-01T06:19:38;1.57;63.80
65584;DHT22;62116;43.582;1.470;2023-03-01T06:22:04;1.54;63.75
65584;DHT22;62116;43.582;1.470;2023-03-01T06:24:29;1.54;63.78
65584;DHT22;62116;43.582;1.470;2023-03-01T06:26:55;1.51;63.87
65584;DHT22;62116;43.582;1.470;2023-03-01T06:29:21;1.48;64.50
65584;DHT22;62116;43.582;1.470;2023-03-01T06:31:47;1.51;64.57
65584;DHT22;62116;43.582;1.470;2023-03-01T06:34:12;1.52;64.67
65584;DHT22;62116;43.582;1.470;2023-03-01T06:36:39;1.54;64.45
65584;DHT22;62116;43.582;1.470;2023-03-01T06:39:05;1.55;64.30
65584;DHT22;62116;43.582;1.470;2023-03-01T06:41:31;1.51;64.61
65584;DHT22;62116;43.582;1.470;2023-03-01T06:43:56;1.48;64.55
65584;DHT22;62116;43.582;1.470;2023-03-01T06:46:22;1.48;64.29
65584;DHT22;62116;43.582;1.470;2023-03-01T06:48:47;1.47;64.29
65584;DHT22;62116;43.582;1.470;2023-03-01T06:51:13;1.43;64.34
65584;DHT22;62116;43.582;1.470;2023-03-01T06:53:38;1.47;64.63
65584;DHT22;62116;43.582;1.470;2023-03-01T06:56:04;1.54;64.66
65584;DHT22;62116;43.582;1.470;2023-03-01T06:58:29;1.60;65.14
65584;DHT22;62116;43.582;1.470;2023-03-01T07:00:55;1.62;64.80
65584;DHT22;62116;43.582;1.470;2023-03-01T07:03:20;1.62;64.52
65584;DHT22;62116;43.582;1.470;2023-03-01T07:05:48;1.68;64.47
65584;DHT22;62116;43.582;1.470;2023-03-01T07:08:14;1.77;64.07
65584;DHT22;62116;43.582;1.470;2023-03-01T07:10:40;1.83;63.97
65584;DHT22;62116;43.582;1.470;2023-03-01T07:13:05;1.97;64.08
65584;DHT22;62116;43.582;1.470;2023-03-01T07:15:32;2.12;63.64
65584;DHT22;62116;43.582;1.470;2023-03-01T07:17:58;2.22;63.40
65584;DHT22;62116;43.582;1.470;2023-03-01T07:20:23;2.25;63.53
65584;DHT22;62116;43.582;1.470;2023-03-01T07:22:51;2.36;63.56
65584;DHT22;62116;43.582;1.470;2023-03-01T07:25:16;2.49;62.87
65584;DHT22;62116;43.582;1.470;2023-03-01T07:27:42;2.50;62.81
65584;DHT22;62116;43.582;1.470;2023-03-01T07:30:08;2.52;62.85
65584;DHT22;62116;43.582;1.470;2023-03-01T07:32:34;2.58;63.09
65584;DHT22;62116;43.582;1.470;2023-03-01T07:34:59;2.58;62.61
65584;DHT22;62116;43.582;1.470;2023-03-01T07:37:24;2.63;62.39
65584;DHT22;62116;43.582;1.470;2023-03-01T07:39:50;2.60;62.32
65584;DHT22;62116;43.582;1.470;2023-03-01T07:42:15;2.70;62.32
65584;DHT22;62116;43.582;1.470;2023-03-01T07:44:41;2.81;61.72
65584;DHT22;62116;43.582;1.470;2023-03-01T07:47:06;2.87;61.47
65584;DHT22;62116;43.582;1.470;2023-03-01T07:49:31;3.00;61.25
65584;DHT22;62116;43.582;1.470;2023-03-01T07:51:57;3.03;60.91
65584;DHT22;62116;43.582;1.470;2023-03-01T07:54:22;3.08;60.29
65584;DHT22;62116;43.582;1.470;2023-03-01T07:56:48;3.21;60.36
65584;DHT22;62116;43.582;1.470;2023-03-01T07:59:13;3.25;60.35
65584;DHT22;62116;43.582;1.470;2023-03-01T08:01:39;3.28;60.07
65584;DHT22;62116;43.582;1.470;2023-03-01T08:04:04;3.28;59.18
65584;DHT22;62116;43.582;1.470;2023-03-01T08:06:34;3.34;59.20
65584;DHT22;62116;43.582;1.470;2023-03-01T08:08:59;3.36;59.62
65584;DHT22;62116;43.582;1.470;2023-03-01T08:11:25;3.42;59.71
65584;DHT22;62116;43.582;1.470;2023-03-01T08:13:50;3.42;59.04
65584;DHT22;62116;43.582;1.470;2023-03-01T08:16:16;3.51;58.58
65584;DHT22;62116;43.582;1.470;2023-03-01T08:18:42;3.56;58.58
65584;DHT22;62116;43.582;1.470;2023-03-01T08:21:11;3.71;58.64
65584;DHT22;62116;43.582;1.470;2023-03-01T08:23:37;3.81;57.50
65584;DHT22;62116;43.582;1.470;2023-03-01T08:26:18;3.83;57.67
65584;DHT22;62116;43.582;1.470;2023-03-01T08:28:44;3.85;57.22
65584;DHT22;62116;43.582;1.470;2023-03-01T08:31:32;3.93;56.98
65584;DHT22;62116;43.582;1.470;2023-03-01T08:34:00;3.89;57.57
65584;DHT22;62116;43.582;1.470;2023-03-01T08:36:29;4.03;57.62
65584;DHT22;62116;43.582;1.470;2023-03-01T08:38:55;4.10;57.39
65584;DHT22;62116;43.582;1.470;2023-03-01T08:41:21;4.16;57.48
65584;DHT22;62116;43.582;1.470;2023-03-01T08:43:46;4.29;57.49
65584;DHT22;62116;43.582;1.470;2023-03-01T08:46:12;4.41;56.93
65584;DHT22;62116;43.582;1.470;2023-03-01T08:48:38;4.54;56.03
65584;DHT22;62116;43.582;1.470;2023-03-01T08:53:38;4.75;56.31
65584;DHT22;62116;43.582;1.470;2023-03-01T08:56:04;4.92;55.94
65584;DHT22;62116;43.582;1.470;2023-03-01T08:58:30;5.18;55.04
65584;DHT22;62116;43.582;1.470;2023-03-01T09:00:55;5.45;54.37
65584;DHT22;62116;43.582;1.470;2023-03-01T09:03:24;5.76;54.40
65584;DHT22;62116;43.582;1.470;2023-03-01T09:05:51;6.14;53.33
65584;DHT22;62116;43.582;1.470;2023-03-01T09:08:17;6.49;51.84
65584;DHT22;62116;43.582;1.470;2023-03-01T09:10:45;6.92;51.59
65584;DHT22;62116;43.582;1.470;2023-03-01T09:13:10;7.36;50.32
65584;DHT22;62116;43.582;1.470;2023-03-01T09:15:39;7.70;48.37
65584;DHT22;62116;43.582;1.470;2023-03-01T09:18:04;8.04;47.03
65584;DHT22;62116;43.582;1.470;2023-03-01T09:20:31;8.39;45.49
65584;DHT22;62116;43.582;1.470;2023-03-01T09:22:57;8.79;44.91
65584;DHT22;62116;43.582;1.470;2023-03-01T09:25:22;9.13;44.12
65584;DHT22;62116;43.582;1.470;2023-03-01T09:27:51;9.52;43.48
65584;DHT22;62116;43.582;1.470;2023-03-01T09:30:16;9.60;41.99
65584;DHT22;62116;43.582;1.470;2023-03-01T09:32:42;9.70;41.88
65584;DHT22;62116;43.582;1.470;2023-03-01T09:35:08;9.92;41.12
65584;DHT22;62116;43.582;1.470;2023-03-01T09:37:35;10.19;39.94
65584;DHT22;62116;43.582;1.470;2023-03-01T09:40:01;10.53;39.79
65584;DHT22;62116;43.582;1.470;2023-03-01T09:42:28;10.72;39.55
65584;DHT22;62116;43.582;1.470;2023-03-01T09:45:05;10.84;38.27
65584;DHT22;62116;43.582;1.470;2023-03-01T09:47:34;11.16;38.75
65584;DHT22;62116;43.582;1.470;2023-03-01T09:50:18;11.19;37.84
65584;DHT22;62116;43.582;1.470;2023-03-01T09:52:48;11.42;36.87
65584;DHT22;62116;43.582;1.470;2023-03-01T09:55:30;11.52;36.73
65584;DHT22;62116;43.582;1.470;2023-03-01T09:58:04;11.57;35.92
65584;DHT22;62116;43.582;1.470;2023-03-01T10:00:42;11.60;35.67
65584;DHT22;62116;43.582;1.470;2023-03-01T10:05:42;11.65;35.39
65584;DHT22;62116;43.582;1.470;2023-03-01T10:08:26;11.67;35.03
65584;DHT22;62116;43.582;1.470;2023-03-01T10:10:54;11.55;35.05
65584;DHT22;62116;43.582;1.470;2023-03-01T10:13:37;11.77;35.56
65584;DHT22;62116;43.582;1.470;2023-03-01T10:16:33;11.88;34.02
65584;DHT22;62116;43.582;1.470;2023-03-01T10:19:02;12.04;34.44
65584;DHT22;62116;43.582;1.470;2023-03-01T10:21:29;12.06;33.60
65584;DHT22;62116;43.582;1.470;2023-03-01T10:24:01;12.08;33.54
65584;DHT22;62116;43.582;1.470;2023-03-01T10:26:43;12.01;33.16
65584;DHT22;62116;43.582;1.470;2023-03-01T10:29:11;11.99;33.77
65584;DHT22;62116;43.582;1.470;2023-03-01T10:31:51;11.99;34.25
65584;DHT22;62116;43.582;1.470;2023-03-01T10:34:31;11.98;34.13
65584;DHT22;62116;43.582;1.470;2023-03-01T10:37:18;11.85;34.10
65584;DHT22;62116;43.582;1.470;2023-03-01T10:40:05;11.77;33.42
65584;DHT22;62116;43.582;1.470;2023-03-01T10:42:48;11.62;33.65
65584;DHT22;62116;43.582;1.470;2023-03-01T10:50:48;11.52;33.99
65584;DHT22;62116;43.582;1.470;2023-03-01T10:53:31;11.47;34.35
65584;DHT22;62116;43.582;1.470;2023-03-01T10:56:12;11.48;34.14
65584;DHT22;62116;43.582;1.470;2023-03-01T10:59:00;11.44;33.75
65584;DHT22;62116;43.582;1.470;2023-03-01T11:01:33;11.42;33.72
65584;DHT22;62116;43.582;1.470;2023-03-01T11:06:31;11.33;33.32
65584;DHT22;62116;43.582;1.470;2023-03-01T11:09:17;11.14;33.35
65584;DHT22;62116;43.582;1.470;2023-03-01T11:11:42;11.00;33.61
65584;DHT22;62116;43.582;1.470;2023-03-01T11:14:22;11.01;33.81
65584;DHT22;62116;43.582;1.470;2023-03-01T11:17:04;10.96;34.27
65584;DHT22;62116;43.582;1.470;2023-03-01T11:19:30;10.86;34.10
65584;DHT22;62116;43.582;1.470;2023-03-01T11:22:12;10.75;34.14
65584;DHT22;62116;43.582;1.470;2023-03-01T11:24:43;10.75;34.62
65584;DHT22;62116;43.582;1.470;2023-03-01T11:27:19;10.69;35.29
65584;DHT22;62116;43.582;1.470;2023-03-01T11:35:57;10.72;34.82
65584;DHT22;62116;43.582;1.470;2023-03-01T11:38:26;10.70;34.88
65584;DHT22;62116;43.582;1.470;2023-03-01T11:40:58;10.62;35.37
65584;DHT22;62116;43.582;1.470;2023-03-01T11:44:18;10.53;35.28
65584;DHT22;62116;43.582;1.470;2023-03-01T11:52:29;10.48;36.50
65584;DHT22;62116;43.582;1.470;2023-03-01T11:55:36;10.49;35.19
65584;DHT22;62116;43.582;1.470;2023-03-01T12:01:07;10.24;34.10
65584;DHT22;62116;43.582;1.470;2023-03-01T12:11:52;10.02;33.88
65584;DHT22;62116;43.582;1.470;2023-03-01T12:30:46;9.54;35.24
65584;DHT22;62116;43.582;1.470;2023-03-01T12:36:29;9.47;35.33
65584;DHT22;62116;43.582;1.470;2023-03-01T12:47:05;9.27;35.82
65584;DHT22;62116;43.582;1.470;2023-03-01T12:49:56;9.28;36.15
65584;DHT22;62116;43.582;1.470;2023-03-01T12:52:24;9.22;37.03
65584;DHT22;62116;43.582;1.470;2023-03-01T12:54:57;9.17;36.59
65584;DHT22;62116;43.582;1.470;2023-03-01T12:57:33;9.05;36.99
65584;DHT22;62116;43.582;1.470;2023-03-01T13:00:26;9.05;36.80
65584;DHT22;62116;43.582;1.470;2023-03-01T13:03:20;9.06;37.44
65584;DHT22;62116;43.582;1.470;2023-03-01T13:11:41;8.96;37.76
65584;DHT22;62116;43.582;1.470;2023-03-01T13:16:52;8.93;37.80
65584;DHT22;62116;43.582;1.470;2023-03-01T13:19:20;8.90;37.72
65584;DHT22;62116;43.582;1.470;2023-03-01T13:21:48;8.89;37.49
65584;DHT22;62116;43.582;1.470;2023-03-01T13:27:09;8.89;37.59
65584;DHT22;62116;43.582;1.470;2023-03-01T13:29:45;8.86;36.92
65584;DHT22;62116;43.582;1.470;2023-03-01T13:34:47;8.85;37.83
65584;DHT22;62116;43.582;1.470;2023-03-01T13:37:22;8.86;37.61
65584;DHT22;62116;43.582;1.470;2023-03-01T13:39:48;8.90;37.90
65584;DHT22;62116;43.582;1.470;2023-03-01T13:42:38;8.87;36.78
65584;DHT22;62116;43.582;1.470;2023-03-01T13:45:20;8.90;36.71
65584;DHT22;62116;43.582;1.470;2023-03-01T13:47:52;8.89;37.49
65584;DHT22;62116;43.582;1.470;2023-03-01T13:50:20;8.87;37.08
65584;DHT22;62116;43.582;1.470;2023-03-01T13:52:50;8.82;37.18
65584;DHT22;62116;43.582;1.470;2023-03-01T13:55:19;8.86;37.28
65584;DHT22;62116;43.582;1.470;2023-03-01T13:57:48;8.83;37.22
65584;DHT22;62116;43.582;1.470;2023-03-01T14:00:27;8.82;37.79
65584;DHT22;62116;43.582;1.470;2023-03-01T14:03:25;8.79;37.60
65584;DHT22;62116;43.582;1.470;2023-03-01T14:06:05;8.82;37.56
65584;DHT22;62116;43.582;1.470;2023-03-01T14:08:36;8.77;37.07
65584;DHT22;62116;43.582;1.470;2023-03-01T14:14:07;8.73;37.49
65584;DHT22;62116;43.582;1.470;2023-03-01T14:19:29;8.73;37.85
65584;DHT22;62116;43.582;1.470;2023-03-01T14:22:22;8.71;38.06
65584;DHT22;62116;43.582;1.470;2023-03-01T14:24:55;8.72;39.08
65584;DHT22;62116;43.582;1.470;2023-03-01T14:27:23;8.73;39.10
65584;DHT22;62116;43.582;1.470;2023-03-01T14:29:57;8.76;38.53
65584;DHT22;62116;43.582;1.470;2023-03-01T14:32:28;8.75;38.58
65584;DHT22;62116;43.582;1.470;2023-03-01T14:34:55;8.72;38.81
65584;DHT22;62116;43.582;1.470;2023-03-01T14:37:29;8.72;38.86
65584;DHT22;62116;43.582;1.470;2023-03-01T14:39:56;8.69;39.19
65584;DHT22;62116;43.582;1.470;2023-03-01T14:42:24;8.72;39.46
65584;DHT22;62116;43.582;1.470;2023-03-01T14:44:53;8.72;39.34
65584;DHT22;62116;43.582;1.470;2023-03-01T14:47:29;8.76;39.59
65584;DHT22;62116;43.582;1.470;2023-03-01T14:50:08;8.75;39.43
65584;DHT22;62116;43.582;1.470;2023-03-01T14:52:37;8.75;39.92
65584;DHT22;62116;43.582;1.470;2023-03-01T14:55:05;8.72;39.84
65584;DHT22;62116;43.582;1.470;2023-03-01T14:57:32;8.72;40.09
65584;DHT22;62116;43.582;1.470;2023-03-01T14:59:59;8.66;39.99
65584;DHT22;62116;43.582;1.470;2023-03-01T15:02:26;8.72;40.13
65584;DHT22;62116;43.582;1.470;2023-03-01T15:04:59;8.71;39.81
65584;DHT22;62116;43.582;1.470;2023-03-01T15:07:29;8.69;40.14
65584;DHT22;62116;43.582;1.470;2023-03-01T15:09:55;8.72;40.14
65584;DHT22;62116;43.582;1.470;2023-03-01T15:14:52;8.73;40.01
65584;DHT22;62116;43.582;1.470;2023-03-01T15:17:31;8.75;39.93
65584;DHT22;62116;43.582;1.470;2023-03-01T15:19:57;8.71;39.58
65584;DHT22;62116;43.582;1.470;2023-03-01T15:22:25;8.69;40.18
65584;DHT22;62116;43.582;1.470;2023-03-01T15:24:52;8.72;40.48
65584;DHT22;62116;43.582;1.470;2023-03-01T15:27:23;8.69;40.30
65584;DHT22;62116;43.582;1.470;2023-03-01T15:29:56;8.62;40.00
65584;DHT22;62116;43.582;1.470;2023-03-01T15:32:32;8.66;40.51
65584;DHT22;62116;43.582;1.470;2023-03-01T15:34:59;8.68;40.36
65584;DHT22;62116;43.582;1.470;2023-03-01T15:37:38;8.68;40.23
65584;DHT22;62116;43.582;1.470;2023-03-01T15:40:26;8.66;40.43
65584;DHT22;62116;43.582;1.470;2023-03-01T15:43:03;8.68;40.78
65584;DHT22;62116;43.582;1.470;2023-03-01T15:45:31;8.69;40.47
65584;DHT22;62116;43.582;1.470;2023-03-01T15:48:14;8.71;40.23
65584;DHT22;62116;43.582;1.470;2023-03-01T15:50:42;8.62;40.43
65584;DHT22;62116;43.582;1.470;2023-03-01T15:53:13;8.59;39.95
65584;DHT22;62116;43.582;1.470;2023-03-01T15:55:42;8.58;40.55
65584;DHT22;62116;43.582;1.470;2023-03-01T15:58:15;8.58;40.20
65584;DHT22;62116;43.582;1.470;2023-03-01T16:00:42;8.58;40.58
65584;DHT22;62116;43.582;1.470;2023-03-01T16:03:09;8.59;41.06
65584;DHT22;62116;43.582;1.470;2023-03-01T16:05:37;8.56;40.63
65584;DHT22;62116;43.582;1.470;2023-03-01T16:08:03;8.56;41.25
65584;DHT22;62116;43.582;1.470;2023-03-01T16:10:31;8.56;40.61
65584;DHT22;62116;43.582;1.470;2023-03-01T16:12:56;8.52;40.94
65584;DHT22;62116;43.582;1.470;2023-03-01T16:15:24;8.49;41.13
65584;DHT22;62116;43.582;1.470;2023-03-01T16:17:49;8.48;41.03
65584;DHT22;62116;43.582;1.470;2023-03-01T16:20:15;8.49;40.85
65584;DHT22;62116;43.582;1.470;2023-03-01T16:22:42;8.46;40.68
65584;DHT22;62116;43.582;1.470;2023-03-01T16:25:10;8.51;40.95
65584;DHT22;62116;43.582;1.470;2023-03-01T16:27:35;8.44;41.15
65584;DHT22;62116;43.582;1.470;2023-03-01T16:30:00;8.41;41.47
65584;DHT22;62116;43.582;1.470;2023-03-01T16:32:26;8.39;41.19
65584;DHT22;62116;43.582;1.470;2023-03-01T16:34:51;8.39;41.24
65584;DHT22;62116;43.582;1.470;2023-03-01T16:37:17;8.39;41.48
65584;DHT22;62116;43.582;1.470;2023-03-01T16:39:44;8.35;41.82
65584;DHT22;62116;43.582;1.470;2023-03-01T16:42:09;8.37;41.07
65584;DHT22;62116;43.582;1.470;2023-03-01T16:44:35;8.34;41.36
65584;DHT22;62116;43.582;1.470;2023-03-01T16:47:00;8.31;41.29
65584;DHT22;62116;43.582;1.470;2023-03-01T16:49:25;8.29;41.40
65584;DHT22;62116;43.582;1.470;2023-03-01T16:51:53;8.27;41.62
65584;DHT22;62116;43.582;1.470;2023-03-01T16:54:18;8.21;42.25
65584;DHT22;62116;43.582;1.470;2023-03-01T16:56:44;8.24;42.04
65584;DHT22;62116;43.582;1.470;2023-03-01T16:59:09;8.22;41.66
65584;DHT22;62116;43.582;1.470;2023-03-01T17:01:35;8.18;42.07
65584;DHT22;62116;43.582;1.470;2023-03-01T17:04:04;8.17;42.32
65584;DHT22;62116;43.582;1.470;2023-03-01T17:06:30;8.14;42.33
65584;DHT22;62116;43.582;1.470;2023-03-01T17:08:57;8.11;42.31
65584;DHT22;62116;43.582;1.470;2023-03-01T17:11:23;8.08;42.27
65584;DHT22;62116;43.582;1.470;2023-03-01T17:13:49;8.02;42.22
65584;DHT22;62116;43.582;1.470;2023-03-01T17:16:17;8.04;42.63
65584;DHT22;62116;43.582;1.470;2023-03-01T17:18:44;7.98;42.36
65584;DHT22;62116;43.582;1.470;2023-03-01T17:21:09;7.97;42.57
65584;DHT22;62116;43.582;1.470;2023-03-01T17:23:38;7.99;42.60
65584;DHT22;62116;43.582;1.470;2023-03-01T17:26:03;7.95;42.56
65584;DHT22;62116;43.582;1.470;2023-03-01T17:28:30;7.94;42.78
65584;DHT22;62116;43.582;1.470;2023-03-01T17:30:58;7.88;42.94
65584;DHT22;62116;43.582;1.470;2023-03-01T17:33:24;7.88;42.59
65584;DHT22;62116;43.582;1.470;2023-03-01T17:35:49;7.80;43.31
65584;DHT22;62116;43.582;1.470;2023-03-01T17:38:16;7.77;43.36
65584;DHT22;62116;43.582;1.470;2023-03-01T17:40:42;7.76;43.17